Time;durP1;ratioP1;P1;durP2;ratioP2;P2;SDS_P1;SDS_P2;PMS_P1;PMS_P2;Temp;Humidity;BMP_temperature;BMP_pressure;BME280_temperature;BME280_humidity;BME280_pressure;Samples;Min_cycle;Max_cycle;Signal;HPM_P1;HPM_P2
2024/01/23 00:01:03;;;;;;;9.55;1.50;;;;;;;3.35;100.00;100218.72;10439370;28;20140;-81
2024/01/23 00:06:07;;;;;;;5.70;1.40;;;;;;;3.44;100.00;100220.88;10452805;28;20033;-80
2024/01/23 00:11:10;;;;;;;4.07;0.80;;;;;;;3.36;100.00;100219.56;10452204;28;20048;-84
2024/01/23 00:16:15;;;;;;;7.63;1.50;;;;;;;3.73;100.00;100223.75;10436366;28;20136;-80
2024/01/23 00:21:17;;;;;;;6.72;1.17;;;;;;;3.64;100.00;100227.75;10450397;28;20056;-82
2024/01/23 00:26:21;;;;;;;7.32;1.10;;;;;;;3.73;100.00;100227.25;10444193;28;20570;-82
2024/01/23 00:31:26;;;;;;;10.13;1.65;;;;;;;4.00;100.00;100225.78;10445730;28;20144;-79
2024/01/23 00:36:29;;;;;;;9.15;1.75;;;;;;;3.83;100.00;100242.69;10455705;28;20079;-81
2024/01/23 00:41:34;;;;;;;14.73;2.42;;;;;;;3.92;100.00;100236.84;10446116;28;20076;-80
2024/01/23 00:46:38;;;;;;;15.75;2.90;;;;;;;4.44;100.00;100246.34;10441699;28;20598;-82
2024/01/23 00:51:41;;;;;;;15.40;2.22;;;;;;;4.43;100.00;100242.81;10431168;28;20131;-82
2024/01/23 00:56:44;;;;;;;10.95;1.90;;;;;;;4.36;100.00;100252.97;10444288;28;20092;-81
2024/01/23 01:01:49;;;;;;;19.48;3.67;;;;;;;4.31;100.00;100264.81;10449371;28;20060;-82
2024/01/23 01:06:52;;;;;;;14.27;2.60;;;;;;;4.26;100.00;100275.69;10449694;28;20056;-84
2024/01/23 01:11:55;;;;;;;31.13;3.10;;;;;;;4.15;100.00;100268.34;10436847;28;20678;-80
2024/01/23 01:16:59;;;;;;;17.92;1.92;;;;;;;4.30;100.00;100276.38;10442542;28;20064;-83
2024/01/23 01:22:02;;;;;;;20.98;3.85;;;;;;;4.37;100.00;100264.47;10435154;28;21742;-81
2024/01/23 01:27:06;;;;;;;21.23;2.90;;;;;;;4.45;100.00;100283.50;10435614;28;20075;-83
2024/01/23 01:32:10;;;;;;;10.70;2.58;;;;;;;4.31;100.00;100280.78;10442650;28;20051;-80
2024/01/23 01:37:13;;;;;;;15.73;3.17;;;;;;;4.40;100.00;100301.53;10440451;28;20041;-83
2024/01/23 01:42:16;;;;;;;11.13;2.28;;;;;;;4.42;100.00;100298.78;10421837;28;20854;-83
2024/01/23 01:47:21;;;;;;;18.80;2.58;;;;;;;4.67;100.00;100320.38;10419069;28;20625;-83
2024/01/23 01:52:24;;;;;;;23.77;3.33;;;;;;;4.73;100.00;100335.13;10444170;28;20516;-84
2024/01/23 01:57:30;;;;;;;17.75;3.15;;;;;;;4.51;100.00;100343.47;10442160;28;20056;-81
2024/01/23 02:02:36;;;;;;;19.17;3.42;;;;;;;4.69;100.00;100342.44;10432223;28;20048;-82
2024/01/23 02:07:39;;;;;;;20.13;2.70;;;;;;;4.53;100.00;100334.47;10437764;28;20049;-81
2024/01/23 02:12:42;;;;;;;19.33;2.88;;;;;;;4.50;100.00;100353.25;10432935;28;20049;-81
2024/01/23 02:17:47;;;;;;;6.72;1.60;;;;;;;4.06;100.00;100367.22;10464092;28;20045;-79
2024/01/23 02:22:50;;;;;;;6.47;1.58;;;;;;;4.10;100.00;100351.94;10477868;28;20060;-79
2024/01/23 02:27:54;;;;;;;9.75;1.35;;;;;;;4.02;100.00;100359.47;10482773;28;20519;-81
2024/01/23 02:32:57;;;;;;;7.57;1.30;;;;;;;4.23;100.00;100355.66;10447313;28;20059;-85
2024/01/23 02:38:00;;;;;;;7.97;1.23;;;;;;;4.14;100.00;100356.13;10441647;28;20056;-84
2024/01/23 02:43:05;;;;;;;8.07;1.50;;;;;;;4.14;100.00;100370.31;10433247;28;21139;-84
2024/01/23 02:48:08;;;;;;;6.95;1.38;;;;;;;3.89;100.00;100399.97;10434523;28;20041;-82
2024/01/23 02:53:11;;;;;;;7.32;1.23;;;;;;;3.93;100.00;100412.19;10444460;28;20464;-82
2024/01/23 02:58:17;;;;;;;15.35;2.63;;;;;;;4.32;100.00;100410.13;10434551;28;20159;-81
2024/01/23 03:03:20;;;;;;;6.05;1.25;;;;;;;3.87;100.00;100415.19;10439579;28;20048;-82
2024/01/23 03:08:24;;;;;;;12.27;1.92;;;;;;;3.85;100.00;100419.72;10438700;28;20067;-83
2024/01/23 03:13:28;;;;;;;5.28;1.10;;;;;;;3.93;100.00;100440.56;10444601;28;20067;-82
2024/01/23 03:18:31;;;;;;;13.98;2.03;;;;;;;2.97;100.00;100438.34;10440818;28;20531;-83
2024/01/23 03:23:34;;;;;;;6.90;1.50;;;;;;;2.88;100.00;100452.91;10423867;28;20075;-83
2024/01/23 03:28:38;;;;;;;19.88;2.60;;;;;;;3.12;100.00;100452.66;10442661;28;20048;-84
2024/01/23 03:33:42;;;;;;;13.80;2.50;;;;;;;3.26;100.00;100455.47;10442502;28;20048;-83
2024/01/23 03:38:45;;;;;;;9.68;2.03;;;;;;;3.64;100.00;100474.81;10474425;28;20080;-81
2024/01/23 03:43:49;;;;;;;12.68;2.42;;;;;;;3.71;100.00;100489.50;10448256;28;20044;-83
2024/01/23 03:48:52;;;;;;;12.98;2.03;;;;;;;3.75;100.00;100500.81;10425274;28;20060;-82
2024/01/23 03:53:55;;;;;;;8.02;1.40;;;;;;;3.59;100.00;100505.19;10424567;28;20517;-82
2024/01/23 03:59:00;;;;;;;17.65;2.67;;;;;;;3.89;100.00;100516.06;10430442;28;20045;-83
2024/01/23 04:04:03;;;;;;;20.60;2.70;;;;;;;4.09;100.00;100521.25;10448568;28;20040;-81
2024/01/23 04:09:07;;;;;;;12.55;2.20;;;;;;;4.06;100.00;100545.31;10443537;28;20438;-83
2024/01/23 04:14:12;;;;;;;26.17;3.92;;;;;;;4.53;100.00;100547.28;10441269;28;20129;-82
2024/01/23 04:19:15;;;;;;;15.93;3.33;;;;;;;4.18;100.00;100543.81;10443858;28;20052;-82
2024/01/23 04:24:18;;;;;;;13.00;2.50;;;;;;;4.30;100.00;100548.50;10443154;28;20056;-82
2024/01/23 04:29:22;;;;;;;15.15;2.75;;;;;;;4.84;100.00;100569.59;10461664;28;20044;-80
2024/01/23 04:34:25;;;;;;;25.50;3.85;;;;;;;4.70;99.99;100583.63;10420972;28;20059;-81
2024/01/23 04:39:28;;;;;;;21.70;3.60;;;;;;;4.97;96.49;100613.25;10421479;28;20037;-83
2024/01/23 04:44:33;;;;;;;25.52;4.60;;;;;;;4.96;96.19;100610.66;10440079;28;20053;-84
2024/01/23 04:49:35;;;;;;;20.42;4.18;;;;;;;4.65;95.87;100627.41;10448015;28;20051;-81
2024/01/23 04:54:41;;;;;;;18.08;3.05;;;;;;;5.03;95.32;100644.03;10448161;28;20057;-83
2024/01/23 04:59:46;;;;;;;11.73;2.83;;;;;;;4.58;95.10;100648.13;10447021;28;20045;-83
2024/01/23 05:04:49;;;;;;;10.00;1.98;;;;;;;4.53;95.37;100632.44;10442180;28;20048;-81
2024/01/23 05:09:52;;;;;;;17.15;3.13;;;;;;;4.62;94.39;100652.38;10429144;28;20516;-83
2024/01/23 05:14:56;;;;;;;13.68;3.88;;;;;;;4.54;95.97;100683.84;10442604;28;20548;-82
2024/01/23 05:19:59;;;;;;;21.65;3.60;;;;;;;4.86;93.69;100666.22;10442056;28;20036;-82
2024/01/23 05:25:03;;;;;;;23.25;2.63;;;;;;;4.70;93.79;100678.59;10440193;28;20055;-79
2024/01/23 05:30:09;;;;;;;26.45;3.53;;;;;;;4.89;95.03;100684.66;10452381;28;20570;-84
2024/01/23 05:35:12;;;;;;;21.08;3.53;;;;;;;4.83;94.63;100701.81;10440424;28;20052;-82
2024/01/23 05:40:16;;;;;;;12.50;2.88;;;;;;;4.66;96.31;100728.44;10430076;28;20508;-83
2024/01/23 05:45:20;;;;;;;18.45;3.10;;;;;;;4.57;97.24;100740.41;10431623;28;21600;-82
2024/01/23 05:50:23;;;;;;;20.38;3.35;;;;;;;4.82;95.57;100748.00;10472080;28;20067;-79
2024/01/23 05:55:26;;;;;;;25.70;4.40;;;;;;;4.72;96.86;100751.22;10475125;28;20097;-79
2024/01/23 06:00:30;;;;;;;28.15;5.53;;;;;;;4.54;98.26;100753.88;10468785;28;20164;-77
2024/01/23 06:05:33;;;;;;;20.02;2.85;;;;;;;4.62;96.49;100762.31;10479917;28;20079;-79
2024/01/23 06:10:36;;;;;;;16.67;3.45;;;;;;;4.65;95.75;100779.94;10476908;28;20101;-80
2024/01/23 06:15:40;;;;;;;25.23;3.67;;;;;;;4.88;93.12;100797.41;10465784;28;20787;-79
2024/01/23 06:20:44;;;;;;;22.10;3.58;;;;;;;4.86;94.55;100817.94;10456683;28;20056;-77
2024/01/23 06:25:46;;;;;;;17.90;3.13;;;;;;;4.71;94.24;100822.22;10476379;28;20108;-81
2024/01/23 06:30:51;;;;;;;23.33;3.08;;;;;;;4.70;95.18;100827.63;10485082;28;20116;-78
2024/01/23 06:35:54;;;;;;;24.15;4.30;;;;;;;4.81;93.71;100839.44;10457337;28;20099;-76
2024/01/23 06:40:57;;;;;;;20.55;3.30;;;;;;;4.95;92.16;100848.56;10473072;28;20806;-79
2024/01/23 06:46:02;;;;;;;24.95;3.90;;;;;;;4.64;95.46;100841.25;10489197;28;20072;-77
2024/01/23 06:51:05;;;;;;;19.65;3.17;;;;;;;4.74;93.62;100834.50;10480482;28;20043;-79
2024/01/23 06:56:08;;;;;;;17.42;4.22;;;;;;;4.98;92.17;100877.69;10467418;28;20052;-79
2024/01/23 07:01:12;;;;;;;17.63;2.80;;;;;;;4.52;95.63;100878.13;10485903;28;20039;-79
2024/01/23 07:06:15;;;;;;;21.90;3.67;;;;;;;4.73;94.64;100889.53;10477398;28;20083;-79
2024/01/23 07:11:20;;;;;;;19.92;5.45;;;;;;;4.42;95.44;100908.78;10454313;28;20184;-78
2024/01/23 07:16:24;;;;;;;27.73;4.13;;;;;;;4.69;95.11;100906.59;10458020;28;20062;-77
2024/01/23 07:21:27;;;;;;;22.55;4.03;;;;;;;4.80;95.15;100920.25;10448314;28;20049;-76
2024/01/23 07:26:30;;;;;;;27.48;4.65;;;;;;;4.54;96.04;100968.53;10441120;28;20048;-77
2024/01/23 07:31:34;;;;;;;21.25;4.30;;;;;;;4.61;95.24;100946.88;10440963;28;20053;-79
2024/01/23 07:36:37;;;;;;;21.80;3.90;;;;;;;5.03;93.02;100952.91;10428733;28;20052;-77
2024/01/23 07:41:41;;;;;;;17.08;3.65;;;;;;;4.59;95.16;100961.19;10427113;28;20049;-77
2024/01/23 07:46:47;;;;;;;22.60;3.60;;;;;;;4.58;95.75;100959.44;10437724;28;20048;-79
2024/01/23 07:51:51;;;;;;;15.90;2.65;;;;;;;4.68;94.87;100973.22;10437228;28;20045;-79
2024/01/23 07:56:54;;;;;;;36.33;4.15;;;;;;;5.03;93.50;100974.22;10439257;28;21187;-81
2024/01/23 08:01:59;;;;;;;6.85;1.48;;;;;;;4.75;93.64;100996.81;10438089;28;20060;-79
2024/01/23 08:07:02;;;;;;;18.33;2.67;;;;;;;4.43;96.16;101008.94;10433878;28;20049;-79
2024/01/23 08:12:06;;;;;;;14.88;2.50;;;;;;;4.72;94.44;101018.25;10432999;28;20511;-79
2024/01/23 08:17:11;;;;;;;20.10;4.25;;;;;;;4.58;95.70;101037.50;10445840;28;20049;-80
2024/01/23 08:22:15;;;;;;;22.27;3.45;;;;;;;4.50;97.69;101063.59;10440606;28;20056;-77
2024/01/23 08:27:18;;;;;;;24.73;4.30;;;;;;;4.37;97.65;101063.28;10481166;28;21039;-76
2024/01/23 08:32:22;;;;;;;25.38;4.13;;;;;;;4.52;96.63;101090.97;10509564;28;20051;-73
2024/01/23 08:37:25;;;;;;;26.70;2.97;;;;;;;4.76;94.33;101110.31;10495428;28;20057;-77
2024/01/23 08:42:28;;;;;;;19.55;3.15;;;;;;;4.72;94.80;101115.88;10491288;28;20086;-79
2024/01/23 08:47:33;;;;;;;22.02;3.90;;;;;;;4.90;92.63;101120.34;10498226;28;20154;-78
2024/01/23 08:52:36;;;;;;;22.73;5.07;;;;;;;4.72;93.88;101124.72;10495497;28;20062;-76
2024/01/23 08:57:40;;;;;;;22.58;2.88;;;;;;;4.57;95.63;101152.00;10468118;28;20048;-78
2024/01/23 09:02:45;;;;;;;26.25;4.78;;;;;;;4.97;93.35;101156.41;10435333;28;20049;-79
2024/01/23 09:07:48;;;;;;;11.70;3.38;;;;;;;4.68;92.99;101176.34;10439877;28;20692;-77
2024/01/23 09:12:51;;;;;;;22.95;4.40;;;;;;;4.72;94.41;101161.13;10431965;28;20516;-79
2024/01/23 09:17:55;;;;;;;12.13;2.10;;;;;;;4.86;91.75;101181.81;10426202;28;20048;-80
2024/01/23 09:22:59;;;;;;;19.75;4.32;;;;;;;4.90;93.78;101186.91;10435126;28;20057;-76
2024/01/23 09:28:02;;;;;;;21.15;2.95;;;;;;;5.00;92.10;101196.25;10446064;28;20049;-78
2024/01/23 09:33:06;;;;;;;16.73;3.00;;;;;;;4.67;94.81;101211.03;10419914;28;20049;-79
2024/01/23 09:38:10;;;;;;;12.90;2.65;;;;;;;4.95;93.29;101192.03;10447580;28;20135;-80
2024/01/23 09:43:13;;;;;;;24.05;3.63;;;;;;;4.87;93.87;101192.38;10450022;28;20617;-76
2024/01/23 09:48:19;;;;;;;21.70;4.13;;;;;;;5.16;92.21;101187.56;10447730;28;20185;-80
2024/01/23 09:53:27;;;;;;;27.70;5.10;;;;;;;4.95;92.99;101197.34;10450979;28;20048;-81
2024/01/23 09:58:30;;;;;;;17.38;3.85;;;;;;;5.62;89.12;101193.41;10449583;28;20040;-77
2024/01/23 10:03:35;;;;;;;21.17;2.92;;;;;;;5.32;89.81;101195.69;10440471;28;20072;-78
2024/01/23 10:08:38;;;;;;;23.88;4.22;;;;;;;5.31;90.92;101208.16;10429428;28;20101;-80
2024/01/23 10:13:43;;;;;;;23.48;4.07;;;;;;;5.39;90.27;101202.50;10440817;28;20858;-80
2024/01/23 10:18:50;;;;;;;21.73;3.25;;;;;;;5.50;90.92;101217.03;10426725;28;20048;-81
2024/01/23 10:23:54;;;;;;;26.67;4.80;;;;;;;5.38;90.92;101235.41;10451511;28;21173;-81
2024/01/23 10:28:57;;;;;;;24.13;4.32;;;;;;;5.46;89.53;101230.59;10435227;28;20056;-81
2024/01/23 10:34:02;;;;;;;26.45;4.55;;;;;;;5.92;86.60;101233.72;10444547;28;20048;-81
2024/01/23 10:39:08;;;;;;;33.85;5.75;;;;;;;5.63;88.65;101243.13;10435462;28;20063;-74
2024/01/23 10:44:13;;;;;;;15.50;2.63;;;;;;;5.33;90.54;101250.75;10449087;28;20128;-81
2024/01/23 10:49:18;;;;;;;18.15;2.92;;;;;;;5.40;90.03;101245.06;10451007;28;20036;-81
2024/01/23 10:54:28;;;;;;;24.58;3.78;;;;;;;5.62;87.90;101246.72;10443400;28;20051;-78
2024/01/23 10:59:31;;;;;;;25.10;4.60;;;;;;;5.40;90.01;101231.75;10447845;28;20090;-81
2024/01/23 11:04:36;;;;;;;20.23;3.47;;;;;;;5.20;89.71;101255.75;10447412;28;20044;-79
2024/01/23 11:09:45;;;;;;;17.17;3.13;;;;;;;5.33;89.63;101238.28;10452283;28;20052;-81
2024/01/23 11:14:52;;;;;;;28.13;4.97;;;;;;;5.62;87.72;101244.03;10452315;28;20094;-81
2024/01/23 11:20:07;;;;;;;20.17;4.32;;;;;;;5.56;88.09;101239.00;10450434;28;20718;-81
2024/01/23 11:25:11;;;;;;;32.67;6.53;;;;;;;5.49;89.06;101223.31;10418864;28;20072;-79
2024/01/23 11:30:14;;;;;;;36.00;4.55;;;;;;;6.02;86.41;101227.03;10451027;28;20056;-82
2024/01/23 11:35:19;;;;;;;27.38;4.70;;;;;;;5.57;88.97;101222.06;10452028;28;20063;-80
2024/01/23 11:40:38;;;;;;;20.80;4.28;;;;;;;6.27;85.73;101224.00;10421935;28;20149;-81
2024/01/23 11:45:49;;;;;;;21.25;4.57;;;;;;;6.19;84.53;101223.53;10429698;28;20677;-81
2024/01/23 11:50:58;;;;;;;18.75;2.80;;;;;;;6.17;83.52;101217.41;10449974;28;21058;-81
2024/01/23 11:56:02;;;;;;;32.83;4.85;;;;;;;6.50;82.18;101225.53;10447107;28;20539;-80
2024/01/23 12:01:07;;;;;;;27.23;5.07;;;;;;;6.36;83.00;101228.03;10431470;28;20054;-79
2024/01/23 12:06:11;;;;;;;22.10;4.45;;;;;;;6.00;84.28;101231.56;10427682;28;20064;-80
2024/01/23 12:11:15;;;;;;;13.38;3.13;;;;;;;5.62;85.34;101230.72;10441132;28;20519;-82
2024/01/23 12:16:19;;;;;;;22.95;3.13;;;;;;;6.12;83.77;101216.78;10435247;28;20146;-81
2024/01/23 12:21:23;;;;;;;26.13;3.67;;;;;;;6.03;82.84;101225.22;10428150;28;20102;-81
2024/01/23 12:26:27;;;;;;;19.98;4.78;;;;;;;5.63;84.51;101217.34;10420413;28;20060;-82
2024/01/23 12:31:31;;;;;;;20.10;3.97;;;;;;;5.84;84.24;101226.13;10449962;28;20423;-79
2024/01/23 12:36:37;;;;;;;31.10;4.22;;;;;;;5.98;81.70;101217.47;10447372;28;20052;-79
2024/01/23 12:41:41;;;;;;;12.77;3.55;;;;;;;6.35;79.54;101203.13;10420973;28;20049;-82
2024/01/23 12:46:44;;;;;;;21.90;5.65;;;;;;;6.23;80.65;101162.88;10432520;28;20490;-81
2024/01/23 12:51:49;;;;;;;21.38;4.70;;;;;;;5.81;82.28;101162.25;10434256;28;20049;-80
2024/01/23 12:56:52;;;;;;;19.00;4.03;;;;;;;6.06;80.51;101171.72;10439189;28;20041;-81
2024/01/23 13:01:55;;;;;;;21.13;4.68;;;;;;;6.03;81.27;101177.19;10421659;28;20056;-78
2024/01/23 13:07:00;;;;;;;22.65;5.70;;;;;;;5.99;81.18;101186.31;10444647;28;20048;-80
2024/01/23 13:12:04;;;;;;;23.73;5.22;;;;;;;6.29;80.13;101183.91;10447063;28;20112;-80
2024/01/23 13:17:07;;;;;;;16.77;3.50;;;;;;;6.44;79.80;101184.94;10468106;28;20040;-81
2024/01/23 13:22:13;;;;;;;17.95;5.60;;;;;;;7.05;75.39;101173.75;10450355;28;20732;-80
2024/01/23 13:27:16;;;;;;;16.75;3.25;;;;;;;6.91;77.87;101187.84;10423273;28;20538;-78
2024/01/23 13:32:20;;;;;;;29.40;5.75;;;;;;;6.96;78.24;101183.09;10441441;28;20193;-82
2024/01/23 13:37:25;;;;;;;26.08;5.32;;;;;;;7.11;77.49;101178.78;10452499;28;20709;-80
2024/01/23 13:42:28;;;;;;;18.10;3.95;;;;;;;6.84;74.94;101168.56;10457044;28;20052;-82
2024/01/23 13:47:31;;;;;;;30.45;5.25;;;;;;;6.81;74.13;101176.75;10449666;28;21206;-80
2024/01/23 13:52:36;;;;;;;11.80;3.60;;;;;;;6.42;75.01;101177.03;10425761;28;20052;-81
2024/01/23 13:57:39;;;;;;;16.75;4.85;;;;;;;6.26;75.83;101174.25;10433293;28;20082;-78
2024/01/23 14:02:43;;;;;;;20.33;5.50;;;;;;;6.95;73.20;101167.19;10444493;28;20053;-79
2024/01/23 14:07:48;;;;;;;17.23;4.07;;;;;;;6.89;73.69;101180.88;10430152;28;20049;-79
2024/01/23 14:12:51;;;;;;;25.88;4.60;;;;;;;6.66;74.95;101179.34;10437056;28;20816;-78
2024/01/23 14:17:55;;;;;;;27.48;5.57;;;;;;;6.88;72.63;101176.44;10444353;28;20429;-81
2024/01/23 14:23:00;;;;;;;23.70;4.05;;;;;;;6.51;75.09;101189.88;10441406;28;20056;-79
2024/01/23 14:28:04;;;;;;;18.55;4.90;;;;;;;6.38;74.72;101192.31;10449912;28;20049;-79
2024/01/23 14:33:08;;;;;;;16.73;4.60;;;;;;;6.55;74.21;101182.56;10447807;28;20045;-77
2024/01/23 14:38:12;;;;;;;29.80;5.70;;;;;;;6.84;73.13;101175.72;10445374;28;20599;-78
2024/01/23 14:43:15;;;;;;;28.70;4.90;;;;;;;6.72;73.63;101163.91;10451096;28;20068;-79
2024/01/23 14:48:19;;;;;;;26.75;4.82;;;;;;;6.78;72.42;101163.56;10451552;28;20044;-79
2024/01/23 14:53:23;;;;;;;14.10;4.25;;;;;;;6.61;72.86;101172.47;10440118;28;20044;-79
2024/01/23 14:58:27;;;;;;;17.30;3.47;;;;;;;6.33;72.56;101159.66;10443834;28;20057;-78
2024/01/23 15:03:30;;;;;;;16.52;3.65;;;;;;;6.26;72.55;101162.72;10430779;28;20049;-80
2024/01/23 15:08:35;;;;;;;22.65;3.95;;;;;;;6.73;71.29;101156.75;10437665;28;20057;-81
2024/01/23 15:13:40;;;;;;;19.15;4.07;;;;;;;6.70;70.85;101147.09;10438962;28;20054;-79
2024/01/23 15:18:44;;;;;;;27.52;5.28;;;;;;;6.25;72.41;101150.31;10441681;28;21166;-79
2024/01/23 15:23:49;;;;;;;30.80;4.90;;;;;;;6.62;71.52;101123.44;10460479;28;20186;-77
2024/01/23 15:28:52;;;;;;;21.42;3.65;;;;;;;6.61;72.04;101131.56;10467854;28;20053;-83
2024/01/23 15:33:56;;;;;;;25.00;4.75;;;;;;;6.53;72.64;101115.94;10461633;28;20044;-80
2024/01/23 15:39:01;;;;;;;22.65;3.55;;;;;;;6.67;72.29;101123.22;10463905;28;20167;-78
2024/01/23 15:44:04;;;;;;;21.50;3.97;;;;;;;6.46;73.81;101111.00;10455108;28;20448;-78
2024/01/23 15:49:08;;;;;;;24.40;3.97;;;;;;;6.27;74.73;101081.72;10437233;28;20059;-80
2024/01/23 15:54:17;;;;;;;17.67;3.92;;;;;;;6.20;75.54;101091.88;10465036;28;20049;-78
2024/01/23 15:59:20;;;;;;;32.83;5.18;;;;;;;6.33;75.06;101079.59;10450076;28;20498;-79
2024/01/23 16:04:23;;;;;;;12.82;3.22;;;;;;;5.90;77.02;101080.97;10449008;28;20055;-80
2024/01/23 16:09:27;;;;;;;20.42;4.18;;;;;;;6.15;76.42;101054.75;10426946;28;20049;-80
2024/01/23 16:14:30;;;;;;;26.00;4.75;;;;;;;5.82;77.94;101067.16;10444961;28;20052;-79
2024/01/23 16:19:33;;;;;;;22.50;4.50;;;;;;;6.26;75.94;101046.19;10444248;28;20056;-79
2024/01/23 16:24:40;;;;;;;22.52;5.22;;;;;;;6.37;74.90;101054.50;10427045;28;20049;-80
2024/01/23 16:29:45;;;;;;;21.73;4.18;;;;;;;6.06;76.10;101049.00;10436157;28;20048;-79
2024/01/23 16:34:49;;;;;;;21.52;5.20;;;;;;;6.38;77.47;101021.50;10442014;28;20048;-79
2024/01/23 16:39:53;;;;;;;24.13;5.57;;;;;;;6.27;79.12;101021.22;10467027;28;20071;-78
2024/01/23 16:44:56;;;;;;;11.73;3.80;;;;;;;5.93;81.87;101016.81;10461267;28;21123;-80
2024/01/23 16:49:59;;;;;;;21.55;4.32;;;;;;;6.14;82.65;101013.03;10460370;28;20055;-80
2024/01/23 16:55:04;;;;;;;16.50;4.10;;;;;;;5.82;86.30;101006.69;10455253;28;20047;-81
2024/01/23 17:00:08;;;;;;;22.00;4.32;;;;;;;5.73;89.69;100994.69;10458359;28;20052;-80
2024/01/23 17:05:11;;;;;;;19.92;4.57;;;;;;;5.23;95.14;100991.88;10454553;28;20044;-81
2024/01/23 17:10:16;;;;;;;25.90;5.05;;;;;;;5.86;93.73;100975.38;10450596;28;20167;-80
2024/01/23 17:15:20;;;;;;;21.00;3.97;;;;;;;5.36;96.54;100977.03;10434700;28;20056;-79
2024/01/23 17:20:24;;;;;;;23.98;4.07;;;;;;;5.42;98.45;100978.50;10454771;28;20052;-79
2024/01/23 17:25:29;;;;;;;25.70;5.57;;;;;;;5.67;97.46;100972.81;10455662;28;20155;-81
2024/01/23 17:30:33;;;;;;;15.07;3.50;;;;;;;5.47;99.28;100949.84;10456079;28;20055;-81
2024/01/23 17:35:38;;;;;;;22.23;3.78;;;;;;;4.87;100.00;100963.41;10464128;28;20049;-77
2024/01/23 17:40:42;;;;;;;22.85;3.25;;;;;;;5.09;100.00;100946.44;10452081;28;20060;-80
2024/01/23 17:45:45;;;;;;;15.45;3.08;;;;;;;4.85;100.00;100933.31;10458675;28;20047;-79
2024/01/23 17:50:48;;;;;;;13.07;2.47;;;;;;;4.99;100.00;100914.94;10455990;28;20040;-80
2024/01/23 17:55:52;;;;;;;14.20;2.83;;;;;;;4.65;100.00;100890.84;10452286;28;20037;-79
2024/01/23 18:00:55;;;;;;;20.17;3.70;;;;;;;5.03;100.00;100897.84;10459252;28;20044;-80
2024/01/23 18:05:59;;;;;;;20.02;2.83;;;;;;;4.57;100.00;100881.44;10458846;28;20051;-80
2024/01/23 18:11:04;;;;;;;9.32;3.15;;;;;;;4.63;100.00;100869.63;10450860;28;20052;-81
2024/01/23 18:16:08;;;;;;;19.88;3.63;;;;;;;4.75;100.00;100823.78;10457685;28;20462;-80
2024/01/23 18:21:12;;;;;;;17.77;3.33;;;;;;;4.74;100.00;100826.53;10451060;28;20508;-79
2024/01/23 18:26:17;;;;;;;14.65;2.20;;;;;;;4.55;100.00;100824.78;10446884;28;20049;-82
2024/01/23 18:31:20;;;;;;;18.92;2.95;;;;;;;4.63;100.00;100805.75;10449015;28;20123;-80
2024/01/23 18:36:23;;;;;;;14.07;2.72;;;;;;;4.77;100.00;100805.06;10452945;28;20097;-81
2024/01/23 18:41:28;;;;;;;19.65;3.45;;;;;;;5.14;100.00;100785.47;10431731;28;20698;-80
2024/01/23 18:46:31;;;;;;;13.52;2.22;;;;;;;4.63;100.00;100765.84;10441974;28;20044;-79
2024/01/23 18:51:34;;;;;;;14.35;3.25;;;;;;;4.52;100.00;100763.72;10455051;28;20052;-79
2024/01/23 18:56:38;;;;;;;16.45;2.45;;;;;;;4.47;100.00;100732.97;10448287;28;20673;-80
2024/01/23 19:01:41;;;;;;;12.93;3.22;;;;;;;4.45;100.00;100738.38;10454509;28;20044;-81
2024/01/23 19:06:44;;;;;;;15.70;3.20;;;;;;;4.67;100.00;100721.34;10448232;28;20431;-80
2024/01/23 19:11:50;;;;;;;13.68;3.38;;;;;;;4.48;100.00;100708.09;10446755;28;20048;-81
2024/01/23 19:16:53;;;;;;;13.40;3.33;;;;;;;4.63;100.00;100686.00;10453757;28;20067;-82
2024/01/23 19:21:56;;;;;;;15.23;2.83;;;;;;;4.50;100.00;100688.47;10451949;28;20388;-79
2024/01/23 19:27:02;;;;;;;9.18;2.70;;;;;;;4.74;100.00;100640.22;10439044;28;20053;-78
2024/01/23 19:32:05;;;;;;;14.18;3.55;;;;;;;4.37;100.00;100610.22;10446230;28;20059;-79
2024/01/23 19:37:08;;;;;;;10.55;2.60;;;;;;;4.53;100.00;100608.47;10449206;28;20155;-80
2024/01/23 19:42:13;;;;;;;15.32;2.58;;;;;;;4.52;100.00;100595.25;10443411;28;20048;-81
2024/01/23 19:47:16;;;;;;;10.50;2.25;;;;;;;4.58;100.00;100605.56;10476175;28;20160;-83
2024/01/23 19:52:19;;;;;;;11.23;2.88;;;;;;;4.89;100.00;100570.19;10456367;28;20053;-82
2024/01/23 19:57:23;;;;;;;11.73;2.42;;;;;;;5.07;100.00;100557.69;10448898;28;20136;-81
2024/01/23 20:02:26;;;;;;;10.18;2.58;;;;;;;4.77;100.00;100541.56;10447949;28;20721;-82
2024/01/23 20:07:29;;;;;;;6.25;1.92;;;;;;;4.70;100.00;100524.25;10450572;28;20047;-79
2024/01/23 20:12:36;;;;;;;8.73;2.67;;;;;;;5.05;100.00;100517.88;10434484;28;20483;-81
2024/01/23 20:17:39;;;;;;;7.10;2.35;;;;;;;4.92;100.00;100502.63;10438767;28;20052;-81
2024/01/23 20:22:43;;;;;;;4.03;2.30;;;;;;;5.17;100.00;100496.81;10449916;28;20082;-81
2024/01/23 20:27:47;;;;;;;9.98;2.78;;;;;;;4.83;100.00;100512.00;10451971;28;20056;-78
2024/01/23 20:32:50;;;;;;;7.53;2.38;;;;;;;5.01;100.00;100492.34;10440969;28;20786;-80
2024/01/23 20:37:53;;;;;;;7.32;2.35;;;;;;;5.08;100.00;100470.72;10448160;28;20056;-82
2024/01/23 20:43:00;;;;;;;5.28;1.60;;;;;;;5.23;100.00;100457.34;10434182;28;20040;-79
2024/01/23 20:48:04;;;;;;;3.95;1.45;;;;;;;5.27;100.00;100458.91;10443759;28;20059;-80
2024/01/23 20:53:07;;;;;;;4.88;1.35;;;;;;;5.33;100.00;100436.38;10443262;28;20040;-81
2024/01/23 20:58:11;;;;;;;9.35;2.28;;;;;;;5.41;100.00;100468.78;10453570;28;20040;-79
2024/01/23 21:03:15;;;;;;;3.55;1.30;;;;;;;5.54;100.00;100449.38;10454089;28;20044;-80
2024/01/23 21:08:18;;;;;;;3.80;1.30;;;;;;;5.58;100.00;100421.63;10459674;28;20044;-80
2024/01/23 21:13:22;;;;;;;4.10;1.52;;;;;;;5.83;100.00;100419.19;10448163;28;20052;-80
2024/01/23 21:18:25;;;;;;;6.50;1.63;;;;;;;5.98;100.00;100403.19;10453279;28;20059;-79
2024/01/23 21:23:29;;;;;;;3.75;2.08;;;;;;;6.14;100.00;100367.50;10459943;28;20565;-80
2024/01/23 21:28:34;;;;;;;2.65;1.98;;;;;;;6.26;100.00;100368.53;10453403;28;20055;-80
2024/01/23 21:33:37;;;;;;;3.08;1.90;;;;;;;6.43;100.00;100350.59;10455653;28;20048;-81
2024/01/23 21:38:40;;;;;;;4.93;2.25;;;;;;;6.61;100.00;100352.94;10456219;28;20508;-80
2024/01/23 21:43:45;;;;;;;1.70;1.08;;;;;;;6.43;100.00;100348.78;10454794;28;20049;-80
2024/01/23 21:48:50;;;;;;;2.65;1.17;;;;;;;6.63;100.00;100352.81;10436162;28;20516;-79
2024/01/23 21:53:53;;;;;;;6.10;2.47;;;;;;;6.56;100.00;100360.38;10458959;28;20059;-77
2024/01/23 21:58:58;;;;;;;8.27;1.77;;;;;;;6.59;100.00;100312.13;10463441;28;20573;-80
2024/01/23 22:04:01;;;;;;;4.22;2.28;;;;;;;6.94;100.00;100302.75;10450626;28;20531;-83
2024/01/23 22:09:05;;;;;;;2.83;1.65;;;;;;;6.40;100.00;100301.81;10444370;28;20057;-80
2024/01/23 22:14:10;;;;;;;6.05;2.60;;;;;;;6.73;100.00;100265.84;10433255;28;20052;-82
2024/01/23 22:19:13;;;;;;;4.13;2.10;;;;;;;6.70;100.00;100274.06;10435477;28;20041;-81
2024/01/23 22:24:18;;;;;;;5.55;2.20;;;;;;;6.73;100.00;100251.66;10442104;28;20508;-79
2024/01/23 22:29:22;;;;;;;5.15;2.47;;;;;;;6.94;100.00;100233.31;10434049;28;20048;-82
2024/01/23 22:34:25;;;;;;;8.05;2.97;;;;;;;7.03;100.00;100220.22;10428601;28;20041;-80
2024/01/23 22:39:28;;;;;;;8.35;3.33;;;;;;;6.90;100.00;100229.16;10436950;28;20049;-81
2024/01/23 22:44:33;;;;;;;3.88;2.60;;;;;;;7.02;100.00;100234.53;10440060;28;20052;-81
2024/01/23 22:49:36;;;;;;;10.10;3.33;;;;;;;7.16;100.00;100212.22;10428733;28;20052;-81
2024/01/23 22:54:39;;;;;;;4.75;2.53;;;;;;;6.97;100.00;100225.13;10439552;28;20296;-80
2024/01/23 22:59:43;;;;;;;6.03;3.28;;;;;;;6.92;100.00;100222.78;10433093;28;20068;-78
2024/01/23 23:04:46;;;;;;;3.30;2.47;;;;;;;7.12;100.00;100208.03;10435393;28;20056;-78
2024/01/23 23:09:50;;;;;;;3.28;2.97;;;;;;;6.98;100.00;100209.00;10438781;28;20049;-80